Private Wetterstation Nrnberg - Katzwang
Wetterdaten: Juni 2015
Datum Temp. A. Feuchte A. Luftdruck Regen Wind Richtung Taupunkt Windchill Windben
01.06.2015 17,1 C 73 % 1014 hPa 14,0 l/m 4,1 km/h W-NW 11,9 C 16,6 C 3,4 km/h
02.06.2015 20,9 C 60 % 1015 hPa 0,0 l/m 11,3 km/h W-NW 12,5 C 20,0 C 10,9 km/h
03.06.2015 22,1 C 59 % 1019 hPa 0,0 l/m 1,3 km/h W-NW 13,3 C 22,1 C 1,0 km/h
04.06.2015 22,2 C 58 % 1022 hPa 0,0 l/m 2,5 km/h N-NO 13,1 C 22,1 C 2,1 km/h
05.06.2015 24,6 C 54 % 1018 hPa 0,0 l/m 5,3 km/h O 13,9 C 24,5 C 4,4 km/h
06.06.2015 27,4 C 54 % 1019 hPa 0,0 l/m 7,6 km/h W-NW 16,6 C 26,8 C 6,3 km/h
07.06.2015 23,0 C 71 % 1021 hPa 4,7 l/m 5,1 km/h N-NO 17,2 C 22,5 C 4,2 km/h
08.06.2015 14,4 C 83 % 1020 hPa 12,4 l/m 3,5 km/h N-NO 11,5 C 13,6 C 2,9 km/h
09.06.2015 12,7 C 80 % 1021 hPa 0,5 l/m 24,3 km/h N-NO 9,4 C 6,5 C 23,8 km/h
10.06.2015 17,1 C 74 % 1020 hPa 0,0 l/m 8,5 km/h N-NO 12,2 C 15,6 C 7,0 km/h
11.06.2015 19,8 C 72 % 1015 hPa 0,0 l/m 7,9 km/h O-NO 14,6 C 19,1 C 6,5 km/h
12.06.2015 23,3 C 66 % 1009 hPa 0,0 l/m 1,3 km/h NO 16,3 C 23,3 C 1,0 km/h
13.06.2015 22,7 C 66 % 1009 hPa 0,0 l/m 6,0 km/h W-NW 15,8 C 22,3 C 12,0 km/h
14.06.2015 23,2 C 56 % 1007 hPa 0,0 l/m 4,7 km/h N-NO 13,5 C 23,1 C 3,9 km/h
15.06.2015 18,3 C 68 % 1014 hPa 0,0 l/m 9,1 km/h N-NO 12,3 C 17,2 C 7,6 km/h
16.06.2015 17,9 C 55 % 1017 hPa 0,0 l/m 18,3 km/h NO 8,3 C 14,1 C 15,1 km/h
17.06.2015 18,4 C 49 % 1019 hPa 0,0 l/m 0,0 km/h N-NO 7,0 C 18,4 C 0,0 km/h
18.06.2015 15,9 C 77 % 1012 hPa 5,2 l/m 1,3 km/h W-NW 11,8 C 15,9 C 1,0 km/h
19.06.2015 13,5 C 73 % 1014 hPa 0,0 l/m 15,4 km/h W-NW 8,6 C 9,8 C 12,8 km/h
20.06.2015 12,2 C 78 % 1016 hPa 3,6 l/m 0,0 km/h W-NW 8,4 C 12,2 C 0,0 km/h
21.06.2015 15,5 C 74 % 1014 hPa 1,0 l/m 6,9 km/h W-NW 10,7 C 13,8 C 5,8 km/h
22.06.2015 14,4 C 80 % 1008 hPa 7,3 l/m 5,0 km/h W-NW 10,9 C 13,3 C 4,2 km/h
23.06.2015 12,2 C 78 % 1011 hPa 7,8 l/m 1,6 km/h W-NW 8,3 C 12,2 C 1,3 km/h
24.06.2015 15,5 C 71 % 1019 hPa 0,0 l/m 5,1 km/h W-NW 10,2 C 14,4 C 4,2 km/h
25.06.2015 17,9 C 65 % 1020 hPa 0,0 l/m 2,5 km/h W-NW 11,0 C 17,6 C 2,1 km/h
26.06.2015 20,8 C 61 % 1017 hPa 0,0 l/m 5,1 km/h W-NW 12,6 C 20,3 C 7,3 km/h
27.06.2015 19,0 C 78 % 1015 hPa 4,1 l/m 3,2 km/h N 15,1 C 18,5 C 2,6 km/h
28.06.2015 19,8 C 59 % 1019 hPa 0,0 l/m 0,0 km/h W-NW 11,2 C 19,8 C 0,0 km/h
29.06.2015 22,5 C 58 % 1018 hPa 0,0 l/m 3,2 km/h W-NW 13,5 C 22,3 C 2,6 km/h
30.06.2015 24,5 C 51 % 1017 hPa 0,0 l/m 0,0 km/h W-NW 13,0 C 24,5 C 0,0 km/h
Min-Datum 25.06.15 30.06.15 23.06.15 10 Tage 01.06.15 - 17.06.15 23.06.15 01.06.15
Min-Zeit 05:10 17:50 00:30 - 00:00 - 12:30 09:00 00:00
Minimum 8,9 C 28 % 1004 hPa - 0,0 km/h - 5,7 C 1,6 C 0,0 km/h
Max-Datum 06.06.15 08.06.15 04.06.15 01.06.15 27.06.15 - 07.06.15 06.06.15 27.06.15
Max-Zeit 16:20 20:10 05:00 16:50 18:50 - 14:20 16:20 18:50
Maximum 34,2 C 86 % 1024 hPa 14,0 l/m 54,2 km/h
N
- 19,7 C 34,2 C 87,7 km/h
N
Durchschnitt 19,0 C 67 % 1016 hPa #60,6 l/m 5,7 km/h W-NW 12,2 C 18,1 C 5,2 km/h

Durchschnitt Minimum Temp.13,4 C
Durchschnitt Maximum Temp.24,0 C